createdAt,value
2022-11-16T00:00:24.643Z,96407.28
2022-11-16T00:02:54.590Z,96406.56
2022-11-16T00:05:27.994Z,96409.34
2022-11-16T00:07:56.689Z,96405.78
2022-11-16T00:10:25.236Z,96396.88
2022-11-16T00:12:53.863Z,96395.13
2022-11-16T00:15:22.355Z,96406.31
2022-11-16T00:17:50.770Z,96400.34
2022-11-16T00:20:20.572Z,96395.19
2022-11-16T00:22:48.992Z,96392.50
2022-11-16T00:25:17.387Z,96393.75
2022-11-16T00:27:45.857Z,96399.03
2022-11-16T00:30:15.041Z,96397.16
2022-11-16T00:32:43.684Z,96388.63
2022-11-16T00:35:12.107Z,96401.09
2022-11-16T00:37:41.896Z,96402.75
2022-11-16T00:40:11.825Z,96414.78
2022-11-16T00:42:40.083Z,96420.91
2022-11-16T00:45:09.872Z,96424.81
2022-11-16T00:47:38.663Z,96441.91
2022-11-16T00:50:07.634Z,96435.34
2022-11-16T00:52:36.348Z,96443.97
2022-11-16T00:55:07.306Z,96446.25
2022-11-16T00:57:36.176Z,96440.19
2022-11-16T01:00:05.840Z,96449.25
2022-11-16T01:02:36.027Z,96445.75
2022-11-16T01:05:04.602Z,96440.25
2022-11-16T01:07:33.156Z,96449.41
2022-11-16T01:10:01.648Z,96445.22
2022-11-16T01:12:30.499Z,96446.94
2022-11-16T01:15:01.001Z,96439.34
2022-11-16T01:17:30.266Z,96437.47
2022-11-16T01:19:58.860Z,96439.53
2022-11-16T01:22:27.408Z,96434.31
2022-11-16T01:24:55.935Z,96450.56
2022-11-16T01:27:24.438Z,96450.06
2022-11-16T01:29:54.923Z,96430.38
2022-11-16T01:32:23.609Z,96435.47
2022-11-16T01:34:52.233Z,96437.91
2022-11-16T01:37:28.400Z,96426.78
2022-11-16T01:39:56.953Z,96434.94
2022-11-16T01:42:28.342Z,96438.53
2022-11-16T01:45:06.167Z,96426.63
2022-11-16T01:47:35.045Z,96415.00
2022-11-16T01:50:10.060Z,96424.34
2022-11-16T01:52:43.955Z,96409.75
2022-11-16T01:55:13.981Z,96407.59
2022-11-16T01:57:51.206Z,96395.06
2022-11-16T02:00:21.256Z,96383.56
2022-11-16T02:03:02.913Z,96367.41
2022-11-16T02:06:00.438Z,96374.28
2022-11-16T02:09:05.025Z,96382.44
2022-11-16T02:12:07.129Z,96368.50
2022-11-16T02:14:48.705Z,96366.13
2022-11-16T02:17:24.771Z,96371.06
2022-11-16T02:20:25.978Z,96373.34
2022-11-16T02:23:14.534Z,96379.94
2022-11-16T02:25:54.901Z,96381.13
2022-11-16T02:28:36.239Z,96377.25
2022-11-16T02:31:09.008Z,96374.47
2022-11-16T02:33:42.400Z,96378.78
2022-11-16T02:36:15.942Z,96382.81
2022-11-16T02:38:51.104Z,96373.66
2022-11-16T02:41:23.724Z,96358.09
2022-11-16T02:43:58.177Z,96352.38
2022-11-16T02:46:31.933Z,96352.25
2022-11-16T02:49:04.108Z,96362.53
2022-11-16T02:51:36.064Z,96361.63
2022-11-16T02:54:11.504Z,96368.50
2022-11-16T02:56:50.919Z,96377.66
2022-11-16T02:59:25.288Z,96381.13
2022-11-16T03:02:02.840Z,96377.06
2022-11-16T03:04:37.713Z,96376.22
2022-11-16T03:07:09.907Z,96378.69
2022-11-16T03:09:41.572Z,96379.72
2022-11-16T03:12:14.173Z,96378.69
2022-11-16T03:14:46.584Z,96382.19
2022-11-16T03:17:22.604Z,96376.94
2022-11-16T03:19:58.199Z,96373.53
2022-11-16T03:22:32.473Z,96376.34
2022-11-16T03:25:01.060Z,96369.84
2022-11-16T03:27:38.131Z,96367.59
2022-11-16T03:30:11.578Z,96370.06
2022-11-16T03:32:52.421Z,96365.03
2022-11-16T03:35:28.084Z,96361.53
2022-11-16T03:37:59.782Z,96361.88
2022-11-16T03:40:32.723Z,96358.34
2022-11-16T03:43:03.928Z,96361.94
2022-11-16T03:45:33.894Z,96358.47
2022-11-16T03:48:03.776Z,96362.66
2022-11-16T03:50:32.365Z,96364.44
2022-11-16T03:53:02.502Z,96360.00
2022-11-16T03:55:31.129Z,96355.06
2022-11-16T03:58:00.396Z,96352.06
2022-11-16T04:00:29.196Z,96349.38
2022-11-16T04:02:57.858Z,96339.50
2022-11-16T04:05:45.145Z,96347.34
2022-11-16T04:08:33.995Z,96339.69
2022-11-16T04:11:20.498Z,96338.69
2022-11-16T04:14:09.564Z,96332.69
2022-11-16T04:16:58.363Z,96339.63
2022-11-16T04:19:44.579Z,96331.38
2022-11-16T04:22:36.004Z,96315.53
2022-11-16T04:25:12.057Z,96314.94
2022-11-16T04:27:58.067Z,96308.66
2022-11-16T04:30:46.749Z,96312.38
2022-11-16T04:33:32.818Z,96310.28
2022-11-16T04:36:20.863Z,96317.06
2022-11-16T04:38:51.121Z,96323.53
2022-11-16T04:41:37.590Z,96321.78
2022-11-16T04:44:06.283Z,96329.72
2022-11-16T04:47:05.077Z,96338.06
2022-11-16T04:49:34.482Z,96351.94
2022-11-16T04:52:03.056Z,96344.66
2022-11-16T04:54:34.137Z,96352.25
2022-11-16T04:57:03.389Z,96345.13
2022-11-16T04:59:31.933Z,96337.53
2022-11-16T05:02:09.273Z,96337.75
2022-11-16T05:04:56.329Z,96338.97
2022-11-16T05:07:26.167Z,96332.69
2022-11-16T05:10:03.703Z,96334.34
2022-11-16T05:12:32.601Z,96331.06
2022-11-16T05:15:03.705Z,96341.81
2022-11-16T05:17:34.695Z,96345.34
2022-11-16T05:20:34.079Z,96335.38
2022-11-16T05:23:05.616Z,96345.44
2022-11-16T05:25:39.453Z,96335.97
2022-11-16T05:28:12.180Z,96331.66
2022-11-16T05:30:46.448Z,96332.38
2022-11-16T05:33:19.200Z,96327.81
2022-11-16T05:35:50.583Z,96342.22
2022-11-16T05:38:19.855Z,96348.41
2022-11-16T05:40:53.806Z,96349.00
2022-11-16T05:43:22.726Z,96349.59
2022-11-16T05:46:11.361Z,96369.16
2022-11-16T05:48:40.643Z,96382.97
2022-11-16T05:51:09.203Z,96394.59
2022-11-16T05:53:37.653Z,96384.41
2022-11-16T05:56:08.961Z,96389.31
2022-11-16T05:58:40.998Z,96384.00
2022-11-16T06:01:09.745Z,96388.41
2022-11-16T06:03:38.734Z,96396.03
2022-11-16T06:06:07.828Z,96403.53
2022-11-16T06:08:37.768Z,96394.44
2022-11-16T06:11:11.630Z,96396.63
2022-11-16T06:13:41.139Z,96397.56
2022-11-16T06:16:10.035Z,96397.75
2022-11-16T06:18:39.802Z,96395.00
2022-11-16T06:21:09.637Z,96396.13
2022-11-16T06:23:38.557Z,96396.03
2022-11-16T06:26:08.543Z,96389.84
2022-11-16T06:28:39.072Z,96404.25
2022-11-16T06:31:07.549Z,96393.72
2022-11-16T06:33:39.883Z,96391.28
2022-11-16T06:36:15.054Z,96398.69
2022-11-16T06:38:44.189Z,96393.84
2022-11-16T06:41:13.755Z,96392.91
2022-11-16T06:43:47.906Z,96398.69
2022-11-16T06:46:19.032Z,96402.88
2022-11-16T06:48:49.420Z,96407.91
2022-11-16T06:51:19.028Z,96398.25
2022-11-16T06:53:48.237Z,96404.31
2022-11-16T06:56:17.304Z,96406.16
2022-11-16T06:58:53.603Z,96407.72
2022-11-16T07:01:23.360Z,96409.06
2022-11-16T07:03:57.596Z,96410.84
2022-11-16T07:06:26.137Z,96415.03
2022-11-16T07:08:54.862Z,96410.28
2022-11-16T07:11:27.406Z,96418.00
2022-11-16T07:13:57.241Z,96419.75
2022-11-16T07:16:26.034Z,96428.06
2022-11-16T07:18:59.242Z,96429.13
2022-11-16T07:21:30.433Z,96429.13
2022-11-16T07:24:00.842Z,96428.91
2022-11-16T07:26:31.076Z,96435.69
2022-11-16T07:29:05.831Z,96440.75
2022-11-16T07:31:36.132Z,96440.81
2022-11-16T07:34:30.730Z,96441.66
2022-11-16T07:37:08.783Z,96441.53
2022-11-16T07:39:37.271Z,96444.84
2022-11-16T07:42:11.791Z,96452.78
2022-11-16T07:44:52.715Z,96453.38
2022-11-16T07:47:20.995Z,96458.22
2022-11-16T07:49:49.584Z,96455.25
2022-11-16T07:52:21.144Z,96460.78
2022-11-16T07:55:01.576Z,96461.81
2022-11-16T07:57:32.423Z,96464.09
2022-11-16T08:00:08.299Z,96463.25
2022-11-16T08:02:45.252Z,96464.09
2022-11-16T08:05:19.608Z,96469.00
2022-11-16T08:07:50.250Z,96471.38
2022-11-16T08:10:20.984Z,96477.34
2022-11-16T08:12:49.764Z,96481.25
2022-11-16T08:15:21.031Z,96477.31
2022-11-16T08:17:49.415Z,96484.19
2022-11-16T08:20:18.851Z,96492.31
2022-11-16T08:22:49.601Z,96492.50
2022-11-16T08:25:18.363Z,96490.75
2022-11-16T08:27:47.688Z,96491.34
2022-11-16T08:30:17.454Z,96494.44
2022-11-16T08:32:48.363Z,96501.94
2022-11-16T08:35:17.757Z,96491.75
2022-11-16T08:37:47.279Z,96502.53
2022-11-16T08:40:16.941Z,96503.63
2022-11-16T08:42:45.592Z,96504.50
2022-11-16T08:45:15.289Z,96498.81
2022-11-16T08:47:43.994Z,96497.91
2022-11-16T08:50:13.844Z,96507.97
2022-11-16T08:52:42.178Z,96509.78
2022-11-16T08:55:13.891Z,96511.50
2022-11-16T08:57:42.740Z,96505.16
2022-11-16T09:00:14.141Z,96506.78
2022-11-16T09:02:42.939Z,96511.16
2022-11-16T09:05:13.018Z,96511.75
2022-11-16T09:07:44.076Z,96507.91
2022-11-16T09:10:13.054Z,96511.09
2022-11-16T09:12:41.617Z,96511.34
2022-11-16T09:15:10.792Z,96508.97
2022-11-16T09:17:39.237Z,96507.81
2022-11-16T09:20:08.985Z,96511.22
2022-11-16T09:22:38.697Z,96508.84
2022-11-16T09:25:09.357Z,96511.22
2022-11-16T09:27:38.531Z,96516.88
2022-11-16T09:30:08.965Z,96515.72
2022-11-16T09:32:37.426Z,96518.31
2022-11-16T09:35:06.550Z,96519.13
2022-11-16T09:37:34.979Z,96521.25
2022-11-16T09:40:05.269Z,96505.75
2022-11-16T09:42:47.082Z,96521.94
2022-11-16T09:45:23.062Z,96516.75
2022-11-16T09:47:53.924Z,96514.06
2022-11-16T09:50:42.381Z,96521.34
2022-11-16T09:53:21.666Z,96526.97
2022-11-16T09:55:53.705Z,96527.41
2022-11-16T09:58:27.894Z,96524.00
2022-11-16T10:01:01.150Z,96521.81
2022-11-16T10:03:33.338Z,96526.16
2022-11-16T10:06:06.270Z,96519.72
2022-11-16T10:08:44.167Z,96512.19
2022-11-16T10:11:34.393Z,96510.53
2022-11-16T10:14:15.089Z,96506.22
2022-11-16T10:16:50.754Z,96501.25
2022-11-16T10:19:31.723Z,96505.47
2022-11-16T10:22:05.867Z,96502.84
2022-11-16T10:24:50.885Z,96498.97
2022-11-16T10:27:41.525Z,96494.41
2022-11-16T10:30:13.963Z,96493.03
2022-11-16T10:32:50.677Z,96487.06
2022-11-16T10:35:25.210Z,96488.34
2022-11-16T10:37:53.975Z,96494.84
2022-11-16T10:40:25.971Z,96481.91
2022-11-16T10:43:14.159Z,96482.63
2022-11-16T10:45:48.365Z,96478.97
2022-11-16T10:48:27.648Z,96471.56
2022-11-16T10:50:56.388Z,96469.31
2022-11-16T10:53:29.891Z,96476.44
2022-11-16T10:56:12.328Z,96468.25
2022-11-16T10:58:53.904Z,96465.28
2022-11-16T11:01:34.513Z,96470.84
2022-11-16T11:04:22.090Z,96468.06
2022-11-16T11:06:53.012Z,96468.88
2022-11-16T11:09:25.272Z,96459.81
2022-11-16T11:12:27.969Z,96462.25
2022-11-16T11:15:03.128Z,96460.06
2022-11-16T11:17:34.067Z,96457.94
2022-11-16T11:20:05.525Z,96455.72
2022-11-16T11:22:42.694Z,96454.41
2022-11-16T11:25:21.033Z,96452.28
2022-11-16T11:27:50.606Z,96450.88
2022-11-16T11:30:23.921Z,96450.69
2022-11-16T11:32:53.387Z,96447.06
2022-11-16T11:35:27.435Z,96453.81
2022-11-16T11:38:02.176Z,96453.03
2022-11-16T11:40:33.409Z,96448.56
2022-11-16T11:43:03.744Z,96449.44
2022-11-16T11:45:39.819Z,96452.22
2022-11-16T11:48:23.443Z,96454.19
2022-11-16T11:50:55.338Z,96448.06
2022-11-16T11:53:40.279Z,96446.97
2022-11-16T11:56:12.458Z,96448.09
2022-11-16T11:58:43.054Z,96446.66
2022-11-16T12:01:41.748Z,96434.28
2022-11-16T12:04:39.685Z,96434.47
2022-11-16T12:07:20.369Z,96433.97
2022-11-16T12:09:53.494Z,96434.66
2022-11-16T12:12:36.105Z,96437.75
2022-11-16T12:15:27.402Z,96433.66
2022-11-16T12:18:07.906Z,96435.53
2022-11-16T12:20:48.232Z,96427.28
2022-11-16T12:23:36.814Z,96429.41
2022-11-16T12:26:13.054Z,96431.28
2022-11-16T12:28:50.840Z,96430.88
2022-11-16T12:31:47.159Z,96431.19
2022-11-16T12:34:27.511Z,96424.09
2022-11-16T12:37:04.130Z,96417.41
2022-11-16T12:39:36.284Z,96421.66
2022-11-16T12:42:32.970Z,96415.66
2022-11-16T12:45:27.628Z,96416.19
2022-11-16T12:48:13.967Z,96409.91
2022-11-16T12:50:55.034Z,96408.09
2022-11-16T12:53:39.593Z,96398.19
2022-11-16T12:56:19.992Z,96397.41
2022-11-16T12:59:05.635Z,96399.47
2022-11-16T13:01:37.760Z,96403.41
2022-11-16T13:04:11.539Z,96401.81
2022-11-16T13:06:50.378Z,96404.72
2022-11-16T13:09:22.510Z,96395.94
2022-11-16T13:11:54.149Z,96399.63
2022-11-16T13:14:27.369Z,96403.78
2022-11-16T13:16:58.479Z,96394.38
2022-11-16T13:19:27.508Z,96408.44
2022-11-16T13:22:03.489Z,96399.16
2022-11-16T13:24:44.736Z,96404.84
2022-11-16T13:27:22.749Z,96390.25
2022-11-16T13:29:56.947Z,96383.00
2022-11-16T13:32:29.246Z,96393.25
2022-11-16T13:34:59.053Z,96384.09
2022-11-16T13:37:44.987Z,96380.50
2022-11-16T13:40:23.926Z,96386.69
2022-11-16T13:43:15.387Z,96382.84
2022-11-16T13:45:52.031Z,96384.72
2022-11-16T13:48:23.953Z,96380.38
2022-11-16T13:50:55.368Z,96373.13
2022-11-16T13:56:20.904Z,96373.00
2022-11-16T13:58:55.194Z,96371.94
2022-11-16T14:01:24.469Z,96367.66
2022-11-16T14:04:13.658Z,96371.34
2022-11-16T14:06:59.603Z,96359.50
2022-11-16T14:09:49.179Z,96356.66
2022-11-16T14:12:58.094Z,96356.81
2022-11-16T14:15:32.141Z,96359.56
2022-11-16T14:18:35.226Z,96360.81
2022-11-16T14:21:13.744Z,96346.78
2022-11-16T14:24:14.633Z,96344.09
2022-11-16T14:26:52.006Z,96346.69
2022-11-16T14:29:46.684Z,96348.78
2022-11-16T14:32:22.460Z,96349.34
2022-11-16T14:34:54.185Z,96347.19
2022-11-16T14:37:32.338Z,96343.69
2022-11-16T14:40:06.646Z,96344.06
2022-11-16T14:43:09.419Z,96343.88
2022-11-16T14:45:38.123Z,96335.97
2022-11-16T14:48:14.826Z,96327.34
2022-11-16T14:50:46.245Z,96334.78
2022-11-16T14:53:18.967Z,96337.88
2022-11-16T14:55:47.525Z,96318.06
2022-11-16T14:58:21.034Z,96324.28
2022-11-16T15:00:54.877Z,96325.38
2022-11-16T15:03:24.702Z,96317.34
2022-11-16T15:05:57.594Z,96315.38
2022-11-16T15:08:32.011Z,96331.13
2022-11-16T15:11:00.860Z,96316.13
2022-11-16T15:13:29.545Z,96320.81
2022-11-16T15:16:12.006Z,96325.78
2022-11-16T15:18:40.496Z,96322.97
2022-11-16T15:21:23.204Z,96321.59
2022-11-16T15:24:15.562Z,96320.94
2022-11-16T15:26:40.488Z,96325.38
2022-11-16T15:29:16.484Z,96319.28
2022-11-16T15:31:44.785Z,96314.13
2022-11-16T15:34:15.170Z,96319.28
2022-11-16T15:36:45.290Z,96315.50
2022-11-16T15:39:17.761Z,96314.03
2022-11-16T15:41:47.037Z,96320.69
2022-11-16T15:44:18.243Z,96313.28
2022-11-16T15:46:50.076Z,96314.19
2022-11-16T15:49:30.093Z,96325.38
2022-11-16T15:52:00.698Z,96327.06
2022-11-16T15:54:30.887Z,96319.69
2022-11-16T15:57:08.644Z,96322.44
2022-11-16T15:59:38.303Z,96315.91
2022-11-16T16:02:14.987Z,96316.66
2022-11-16T16:04:43.953Z,96310.81
2022-11-16T16:07:36.766Z,96313.59
2022-11-16T16:10:25.669Z,96303.25
2022-11-16T16:12:55.830Z,96323.94
2022-11-16T16:15:26.220Z,96320.75
2022-11-16T16:17:55.449Z,96321.28
2022-11-16T16:20:26.334Z,96322.72
2022-11-16T16:23:07.453Z,96319.34
2022-11-16T16:25:37.156Z,96318.41
2022-11-16T16:28:06.154Z,96310.09
2022-11-16T16:30:35.759Z,96311.97
2022-11-16T16:33:04.836Z,96305.38
2022-11-16T16:35:33.524Z,96297.78
2022-11-16T16:38:03.510Z,96299.25
2022-11-16T16:40:31.904Z,96306.56
2022-11-16T16:43:00.439Z,96309.25
2022-11-16T16:45:37.027Z,96310.44
2022-11-16T16:48:06.013Z,96297.50
2022-11-16T16:50:34.683Z,96301.81
2022-11-16T16:53:04.915Z,96308.13
2022-11-16T16:55:37.188Z,96306.56
2022-11-16T16:58:06.493Z,96304.72
2022-11-16T17:00:35.186Z,96307.06
2022-11-16T17:03:04.304Z,96307.41
2022-11-16T17:05:33.976Z,96304.94
2022-11-16T17:08:04.165Z,96306.66
2022-11-16T17:10:33.020Z,96296.28
2022-11-16T17:13:03.169Z,96296.91
2022-11-16T17:15:31.836Z,96290.34
2022-11-16T17:18:00.915Z,96286.63
2022-11-16T17:20:29.433Z,96283.75
2022-11-16T17:22:58.014Z,96287.34
2022-11-16T17:25:27.928Z,96285.31
2022-11-16T17:27:56.208Z,96284.88
2022-11-16T17:30:24.770Z,96282.19
2022-11-16T17:32:53.377Z,96279.19
2022-11-16T17:35:21.854Z,96283.72
2022-11-16T17:37:50.484Z,96278.06
2022-11-16T17:40:19.190Z,96275.69
2022-11-16T17:42:49.047Z,96273.25
2022-11-16T17:45:17.671Z,96272.81
2022-11-16T17:47:46.215Z,96279.78
2022-11-16T17:50:14.931Z,96272.56
2022-11-16T17:52:43.433Z,96273.41
2022-11-16T17:55:11.974Z,96269.72
2022-11-16T17:57:40.489Z,96265.72
2022-11-16T18:00:11.970Z,96258.91
2022-11-16T18:02:40.475Z,96258.06
2022-11-16T18:05:09.838Z,96262.16
2022-11-16T18:07:40.211Z,96264.66
2022-11-16T18:10:11.102Z,96259.91
2022-11-16T18:12:42.221Z,96257.03
2022-11-16T18:15:28.168Z,96260.50
2022-11-16T18:17:57.491Z,96268.47
2022-11-16T18:20:27.598Z,96258.69
2022-11-16T18:22:56.995Z,96258.41
2022-11-16T18:25:25.743Z,96257.47
2022-11-16T18:27:54.674Z,96242.59
2022-11-16T18:30:25.129Z,96241.03
2022-11-16T18:32:53.596Z,96238.31
2022-11-16T18:35:22.052Z,96238.69
2022-11-16T18:37:50.841Z,96234.66
2022-11-16T18:40:19.542Z,96238.84
2022-11-16T18:42:48.186Z,96227.31
2022-11-16T18:45:16.888Z,96217.97
2022-11-16T18:47:46.999Z,96218.72
2022-11-16T18:50:21.325Z,96214.53
2022-11-16T18:52:52.593Z,96211.03
2022-11-16T18:55:21.108Z,96202.91
2022-11-16T18:57:49.650Z,96199.53
2022-11-16T19:00:20.221Z,96201.38
2022-11-16T19:02:50.392Z,96175.97
2022-11-16T19:05:18.765Z,96173.41
2022-11-16T19:07:47.266Z,96171.00
2022-11-16T19:10:15.942Z,96164.25
2022-11-16T19:12:44.367Z,96157.31
2022-11-16T19:15:12.928Z,96157.09
2022-11-16T19:17:59.606Z,96158.03
2022-11-16T19:20:31.255Z,96158.66
2022-11-16T19:22:59.924Z,96152.81
2022-11-16T19:25:28.554Z,96152.25
2022-11-16T19:27:57.121Z,96155.91
2022-11-16T19:30:25.603Z,96163.38
2022-11-16T19:32:57.251Z,96160.47
2022-11-16T19:35:26.306Z,96157.66
2022-11-16T19:37:56.114Z,96162.88
2022-11-16T19:40:25.278Z,96169.00
2022-11-16T19:42:53.991Z,96165.31
2022-11-16T19:45:22.540Z,96165.88
2022-11-16T19:47:51.044Z,96159.00
2022-11-16T19:50:19.517Z,96151.97
2022-11-16T19:52:48.028Z,96167.00
2022-11-16T19:55:17.872Z,96161.66
2022-11-16T19:57:46.491Z,96168.88
2022-11-16T20:00:16.512Z,96165.53
2022-11-16T20:02:44.928Z,96165.69
2022-11-16T20:05:13.369Z,96172.56
2022-11-16T20:07:42.429Z,96176.13
2022-11-16T20:10:11.012Z,96182.16
2022-11-16T20:12:41.083Z,96187.28
2022-11-16T20:15:09.756Z,96194.31
2022-11-16T20:17:38.120Z,96199.25
2022-11-16T20:20:07.371Z,96205.41
2022-11-16T20:22:35.811Z,96201.38
2022-11-16T20:25:04.412Z,96196.63
2022-11-16T20:27:32.823Z,96195.88
2022-11-16T20:30:07.960Z,96186.72
2022-11-16T20:32:37.849Z,96193.31
2022-11-16T20:35:06.701Z,96184.56
2022-11-16T20:37:35.151Z,96158.69
2022-11-16T20:40:03.644Z,96141.78
2022-11-16T20:42:32.107Z,96132.69
2022-11-16T20:45:02.263Z,96123.84
2022-11-16T20:47:30.587Z,96121.66
2022-11-16T20:49:59.035Z,96120.00
2022-11-16T20:52:27.543Z,96127.06
2022-11-16T20:54:55.988Z,96127.06
2022-11-16T20:57:24.403Z,96127.78
2022-11-16T20:59:52.848Z,96118.56
2022-11-16T21:02:22.640Z,96118.06
2022-11-16T21:04:54.789Z,96118.72
2022-11-16T21:07:26.076Z,96122.63
2022-11-16T21:10:11.999Z,96123.38
2022-11-16T21:13:00.488Z,96129.13
2022-11-16T21:15:28.943Z,96122.38
2022-11-16T21:17:58.757Z,96128.63
2022-11-16T21:20:28.320Z,96121.72
2022-11-16T21:22:57.364Z,96115.50
2022-11-16T21:25:25.809Z,96117.44
2022-11-16T21:27:55.246Z,96121.47
2022-11-16T21:30:23.752Z,96105.81
2022-11-16T21:32:52.193Z,96100.88
2022-11-16T21:35:23.489Z,96098.16
2022-11-16T21:37:51.951Z,96094.47
2022-11-16T21:40:20.409Z,96098.78
2022-11-16T21:42:49.973Z,96102.53
2022-11-16T21:45:18.515Z,96100.25
2022-11-16T21:47:47.167Z,96094.50
2022-11-16T21:50:32.156Z,96091.13
2022-11-16T21:53:02.550Z,96094.63
2022-11-16T21:55:30.902Z,96090.66
2022-11-16T21:57:59.717Z,96089.19
2022-11-16T22:00:28.764Z,96087.56
2022-11-16T22:02:57.216Z,96080.00
2022-11-16T22:05:43.109Z,96078.72
2022-11-16T22:08:13.131Z,96081.47
2022-11-16T22:10:41.443Z,96073.31
2022-11-16T22:13:09.844Z,96073.31
2022-11-16T22:15:38.379Z,96067.81
2022-11-16T22:18:07.008Z,96066.94
2022-11-16T22:20:35.470Z,96057.34
2022-11-16T22:23:03.902Z,96055.50
2022-11-16T22:25:33.919Z,96047.72
2022-11-16T22:30:52.237Z,96049.38
2022-11-16T22:33:20.688Z,96065.91
2022-11-16T22:35:49.123Z,96058.34
2022-11-16T22:38:17.539Z,96063.56
2022-11-16T22:40:51.881Z,96079.81
2022-11-16T22:43:21.655Z,96072.22
2022-11-16T22:45:50.208Z,96061.44
2022-11-16T22:48:18.855Z,96066.88
2022-11-16T22:50:47.297Z,96070.16
2022-11-16T22:53:15.882Z,96061.94
2022-11-16T22:55:44.908Z,96061.66
2022-11-16T22:58:14.706Z,96060.94
2022-11-16T23:00:43.170Z,96069.34
2022-11-16T23:03:11.655Z,96057.25
2022-11-16T23:05:40.189Z,96062.28
2022-11-16T23:08:08.613Z,96054.81
2022-11-16T23:10:57.208Z,96051.47
2022-11-16T23:13:44.361Z,96049.84
2022-11-16T23:16:12.782Z,96045.25
2022-11-16T23:18:41.190Z,96045.06
2022-11-16T23:21:27.501Z,96042.69
2022-11-16T23:24:13.380Z,96045.69
2022-11-16T23:26:59.399Z,96037.16
2022-11-16T23:29:29.226Z,96027.50
2022-11-16T23:31:57.772Z,96029.97
2022-11-16T23:34:26.235Z,96021.84
2022-11-16T23:36:54.621Z,96022.56
2022-11-16T23:39:23.007Z,96023.41
2022-11-16T23:42:08.794Z,96019.09
2022-11-16T23:44:38.674Z,96005.13
2022-11-16T23:47:07.143Z,96000.91
2022-11-16T23:49:35.614Z,96008.41
2022-11-16T23:52:04.125Z,96005.84
2022-11-16T23:54:32.591Z,96001.75
2022-11-16T23:57:01.492Z,95999.91
2022-11-16T23:59:29.938Z,95997.34
